• Join FlightAware (Why Join?)
  • Login
  • US Flag 
01:15AM EDT


 

Airport Tracker/Info


-or-


 

Live Flight TrackerFlight Track Log ✈ N3746H ✈ 21-Apr-2013 ✈ KPHX - KJFK

Flight Track Log - Related Links

Times and Time Zones

All times are in EDT time to prevent confusion due to time zone crossing. See the N3746H flight status page for this flight to view local times or setup timezone preferences in your user account.

Time Position Orientation Groundspeed Altitude Reporting Facility
EDT Latitude Longitude Course Direction KTS MPH feet Rate Location/Type
10:21AM 33.4333 -111.9833 83° East 179 206 2,100  Level Phoenix TRACON
10:22AM 33.4333 -111.8667 90° East 271 312 4,700 2,100 Climbing Phoenix TRACON
10:23AM 33.4723 -111.5427 81° East  Level FlightAware Approximate
10:23AM 33.4411 -111.8183 79° East 274 315 6,300  Level Albuquerque Center
10:24AM 33.4931 -111.3905 81° East  Level FlightAware Approximate
10:24AM 33.4550 -111.7228 80° East 290 334 9,400  Level Albuquerque Center
10:25AM 33.5138 -111.2383 81° East  Level FlightAware Approximate
10:25AM 33.4694 -111.6228 80° East 311 358 11,200  Level Albuquerque Center
10:26AM 33.5299 -111.0852 83° East  Level FlightAware Approximate
10:26AM 33.4850 -111.5083 81° East 347 399 13,700  Level Albuquerque Center
10:27AM 33.5011 -111.3878 81° East 369 425 15,700 2,040 Climbing Albuquerque Center
10:28AM 33.5150 -111.2600 83° East 387 445 17,900 2,040 Climbing Albuquerque Center
10:29AM 33.5306 -111.1278 82° East 402 463 19,900 1,320 Climbing Albuquerque Center
10:30AM 33.5489 -110.9539 83° East 443 510 20,700 1,140 Climbing Albuquerque Center
10:31AM 33.5853 -110.8022 74° East 470 541 22,300 1,500 Climbing Albuquerque Center
10:32AM 33.6336 -110.6550 68° East 478 550 23,800 1,320 Climbing Albuquerque Center
10:33AM 33.6811 -110.5033 69° East 484 557 25,100 1,200 Climbing Albuquerque Center
10:34AM 33.7278 -110.3592 69° East 495 570 26,300 1,320 Climbing Albuquerque Center
10:35AM 33.7881 -110.1706 69° East 504 580 27,900 1,440 Climbing Albuquerque Center
10:36AM 33.8386 -110.0128 69° East 508 585 29,300 1,320 Climbing Albuquerque Center
10:37AM 33.8894 -109.8567 69° East 506 582 30,700 1,140 Climbing Albuquerque Center
10:38AM 33.9386 -109.7008 69° East 503 579 31,700 1,020 Climbing Albuquerque Center
10:39AM 33.9883 -109.5417 69° East 506 582 32,800 1,140 Climbing Albuquerque Center
10:40AM 34.0378 -109.3847 69° East 505 581 34,100 1,020 Climbing Albuquerque Center
10:41AM 34.0853 -109.2303 70° East 499 574 35,000 420 Climbing Albuquerque Center
10:42AM 34.1436 -109.0453 69° East 496 571 35,000  Level Albuquerque Center
10:43AM 34.1911 -108.8886 70° East 498 573 35,000  Level Albuquerque Center
10:44AM 34.2392 -108.7322 70° East 499 574 35,000  Level Albuquerque Center
10:45AM 34.2864 -108.5753 70° East 501 577 35,000  Level Albuquerque Center
10:46AM 34.3364 -108.4103 70° East 502 578 35,000  Level Albuquerque Center
10:47AM 34.3844 -108.2519 70° East 501 577 35,000  Level Albuquerque Center
10:48AM 34.4169 -108.0883 76° East 505 581 35,000  Level Albuquerque Center
10:49AM 34.4158 -107.9183 90° East 507 583 35,000  Level Albuquerque Center
10:51AM 34.4119 -107.7408 91° East  Level FlightAware Approximate
10:51AM 34.4111 -107.5406 91° East 511 588 35,000  Level Albuquerque Center
10:52AM 34.4092 -107.3681 91° East 513 590 35,000  Level Albuquerque Center
10:53AM 34.4050 -107.1956 92° East 515 593 35,000  Level Albuquerque Center
10:55AM 34.4008 -107.0242 92° East 514 592 35,000  Level Albuquerque Center
10:56AM 34.3969 -106.8539 92° East 512 589 35,000  Level Albuquerque Center
10:57AM 34.4033 -106.6853 87° East 507 583 35,000  Level Albuquerque Center
10:58AM 34.4758 -106.5089 63° Northeast 491 565 35,000  Level Albuquerque Center
10:59AM 34.5406 -106.3642 61° Northeast 492 566 35,000  Level Albuquerque Center
11:00AM 34.6028 -106.2203 62° Northeast 488 562 35,000  Level Albuquerque Center
11:01AM 34.6650 -106.0778 62° Northeast 487 560 35,000  Level Albuquerque Center
11:02AM 34.7406 -105.9061 62° Northeast 489 563 35,000  Level Albuquerque Center
11:03AM 34.8033 -105.7564 63° Northeast 490 564 35,000  Level Albuquerque Center
11:04AM 34.8708 -105.6072 61° Northeast 495 570 35,000  Level Albuquerque Center
11:05AM 34.9336 -105.4575 63° Northeast 494 568 35,000  Level Albuquerque Center
11:06AM 34.9972 -105.3086 62° Northeast 491 565 35,000  Level Albuquerque Center
11:07AM 35.0603 -105.1597 63° Northeast 491 565 35,000  Level Albuquerque Center
11:08AM 35.1194 -105.0053 65° Northeast 498 573 35,000  Level Albuquerque Center
11:09AM 35.1542 -104.8367 76° East 505 581 35,000  Level Albuquerque Center
11:10AM 35.1883 -104.6675 76° East 507 583 35,000  Level Albuquerque Center
11:11AM 35.2236 -104.5014 75° East 514 592 35,000  Level Albuquerque Center
11:12AM 35.2633 -104.2975 77° East 514 592 35,000  Level Albuquerque Center
11:13AM 35.2908 -104.1625 76° East 513 590 35,000  Level Albuquerque Center
11:14AM 35.3308 -103.9594 76° East 513 590 35,000  Level Albuquerque Center
11:15AM 35.3622 -103.7981 77° East 514 592 35,000  Level Albuquerque Center
11:16AM 35.4008 -103.5997 77° East 510 587 35,000  Level Albuquerque Center
11:17AM 35.4342 -103.4283 77° East 511 588 35,000  Level Albuquerque Center
11:18AM 35.4669 -103.2556 77° East 515 593 35,000  Level Albuquerque Center
11:19AM 35.4997 -103.0833 77° East 515 593 35,000  Level Albuquerque Center
11:20AM 35.5319 -102.9086 77° East 518 596 35,000  Level Albuquerque Center
11:21AM 35.5661 -102.7294 77° East 520 598 35,000  Level Albuquerque Center
11:22AM 35.5969 -102.5569 78° East 519 597 35,000  Level Albuquerque Center
11:23AM 35.6289 -102.3836 77° East 519 597 35,000  Level Albuquerque Center
11:24AM 35.6603 -102.2094 77° East 520 598 35,000  Level Albuquerque Center
11:25AM 35.6922 -102.0353 77° East 520 598 35,000  Level Albuquerque Center
11:26AM 35.7239 -101.8606 77° East 520 598 35,000  Level Albuquerque Center
11:27AM 35.7606 -101.6506 78° East 520 598 35,000  Level Albuquerque Center
11:28AM 35.7917 -101.4739 78° East 523 602 35,000  Level Albuquerque Center
11:29AM 35.8361 -101.3058 72° East 519 597 35,000  Level Albuquerque Center
11:31AM 35.8936 -101.1489 66° East 503 579 35,000  Level Albuquerque Center
11:32AM 35.9514 -100.9900 66° East 505 581 35,000  Level Albuquerque Center
11:33AM 36.0067 -100.8353 66° East 504 580 35,000  Level Albuquerque Center
11:34AM 36.0628 -100.6767 66° East 502 578 35,000  Level Albuquerque Center
11:35AM 36.1194 -100.5194 66° East 501 577 35,000  Level Albuquerque Center
11:36AM 36.1867 -100.3308 66° East 498 573 35,000  Level Albuquerque Center
11:37AM 36.2406 -100.1742 67° East 496 571 35,000  Level Albuquerque Center
11:38AM 36.2964 -100.0167 66° East 495 570 35,000  Level Albuquerque Center
11:39AM 36.3508 -99.8603 67° East 493 567 35,000  Level Albuquerque Center
11:40AM 36.4225 -99.6775 64° Northeast 489 563 35,000  Level Kansas City Center
11:41AM 36.4808 -99.5258 64° Northeast 485 558 35,000  Level Kansas City Center
11:42AM 36.5386 -99.3756 64° Northeast 480 552 35,000  Level Kansas City Center
11:43AM 36.5961 -99.2242 65° Northeast 479 551 35,000  Level Kansas City Center
11:44AM 36.6531 -99.0725 65° Northeast 479 551 35,000  Level Kansas City Center
11:45AM 36.7111 -98.9167 65° Northeast 487 560 35,000  Level Kansas City Center
11:46AM 36.7683 -98.7692 64° Northeast 476 548 35,000  Level Kansas City Center
11:47AM 36.8256 -98.6206 64° Northeast 473 544 35,000  Level Kansas City Center
11:48AM 36.8928 -98.4400 65° Northeast 475 547 35,000  Level Kansas City Center
11:49AM 36.9414 -98.3128 64° Northeast 474 545 35,000  Level Kansas City Center
11:50AM 36.9961 -98.1625 65° Northeast 476 548 35,000  Level Kansas City Center
11:51AM 37.0625 -97.9825 65° Northeast 477 549 35,000  Level Kansas City Center
11:52AM 37.1172 -97.8319 65° Northeast 477 549 35,000  Level Kansas City Center
11:53AM 37.1731 -97.6803 65° Northeast 481 554 35,000  Level Kansas City Center
11:54AM 37.2269 -97.5267 66° East 482 555 35,000  Level Kansas City Center
11:55AM 37.2839 -97.3731 65° Northeast 486 559 35,000  Level Kansas City Center
11:56AM 37.3361 -97.2158 67° East 490 564 35,000  Level Kansas City Center
11:57AM 37.3900 -97.0211 71° East 493 567 35,000  Level Kansas City Center
11:58AM 37.4358 -96.8597 70° East 494 568 35,000  Level Kansas City Center
11:59AM 37.4803 -96.6989 71° East 490 564 35,000  Level Kansas City Center
12:01PM 37.5244 -96.5356 71° East 492 566 35,000  Level Kansas City Center
12:02PM 37.5733 -96.3603 71° East 489 563 35,000  Level Kansas City Center
12:03PM 37.6183 -96.1972 71° East 489 563 35,000  Level Kansas City Center
12:04PM 37.6617 -96.0356 71° East 487 560 35,000  Level Kansas City Center
12:05PM 37.7058 -95.8742 71° East 484 557 35,000  Level Kansas City Center
12:06PM 37.7489 -95.7119 71° East 484 557 35,000  Level Kansas City Center
12:07PM 37.7928 -95.5503 71° East 485 558 35,000  Level Kansas City Center
12:08PM 37.8353 -95.3894 71° East 483 556 35,000  Level Kansas City Center
12:09PM 37.8858 -95.1958 72° East 482 555 35,000  Level Kansas City Center
12:10PM 37.9247 -95.0500 71° East 479 551 35,000  Level Kansas City Center
12:11PM 37.9717 -94.8678 72° East 484 557 35,000  Level Kansas City Center
12:12PM 38.0114 -94.7122 72° East 486 559 35,000  Level Kansas City Center
12:13PM 38.0586 -94.5306 72° East 487 560 35,000 60 Level Kansas City Center
12:14PM 38.0981 -94.3744 72° East 487 560 35,200 720 Climbing Kansas City Center
12:15PM 38.1439 -94.1950 72° East 483 556 36,600 840 Climbing Kansas City Center
12:16PM 38.1808 -94.0478 72° East 474 545 37,000 180 Climbing Kansas City Center
12:17PM 38.2225 -93.8844 72° East 479 551 37,000  Level Kansas City Center
12:18PM 38.2625 -93.7186 73° East 486 559 37,000  Level Kansas City Center
12:19PM 38.3039 -93.5528 72° East 489 563 37,000  Level Kansas City Center
12:20PM 38.3533 -93.3503 73° East 494 568 37,000  Level Kansas City Center
12:21PM 38.3942 -93.1819 73° East 495 570 37,000  Level Kansas City Center
12:22PM 38.4364 -93.0131 72° East 496 571 37,000  Level Kansas City Center
12:23PM 38.4758 -92.8450 73° East 492 566 37,000  Level Kansas City Center
12:24PM 38.5158 -92.6772 73° East 491 565 37,000  Level Kansas City Center
12:25PM 38.5550 -92.5092 73° East 490 564 37,000  Level Kansas City Center
12:26PM 38.5942 -92.3419 73° East 487 560 37,000  Level Kansas City Center
12:27PM 38.6322 -92.1758 74° East 486 559 37,000  Level Kansas City Center
12:28PM 38.6708 -92.0081 74° East 486 559 37,000  Level Kansas City Center
12:29PM 38.7081 -91.8425 74° East 483 556 37,000  Level Kansas City Center
12:30PM 38.7522 -91.6519 73° East 481 554 37,000  Level Kansas City Center
12:31PM 38.7886 -91.4872 74° East 481 554 37,000  Level Kansas City Center
12:32PM 38.8267 -91.3214 74° East 484 557 37,000  Level Kansas City Center
12:33PM 38.8633 -91.1539 74° East 487 560 37,000  Level Kansas City Center
12:35PM 38.9003 -90.9869 74° East 487 560 37,000  Level Kansas City Center
12:36PM 38.9386 -90.8192 74° East 487 560 37,000  Level Kansas City Center
12:37PM 38.9747 -90.6489 75° East 489 563 37,000  Level Kansas City Center
12:38PM 39.0117 -90.4767 75° East 493 567 37,000  Level Kansas City Center
12:39PM 39.0569 -90.2711 74° East 493 567 37,000  Level Kansas City Center
12:40PM 39.0936 -90.0997 75° East 493 567 37,000  Level Kansas City Center
12:41PM 39.1303 -89.9183 75° East 491 565 37,000  Level Kansas City Center
12:42PM 39.1653 -89.7506 75° East 486 559 37,000  Level Kansas City Center
12:43PM 39.1972 -89.5931 75° East 487 560 37,000  Level Kansas City Center
12:44PM 39.2328 -89.4261 75° East 485 558 37,000  Level Kansas City Center
12:45PM 39.2675 -89.2589 75° East 483 556 37,000  Level Kansas City Center
12:46PM 39.3081 -89.0550 76° East 488 562 37,000  Level Kansas City Center
12:47PM 39.3433 -88.8886 75° East 484 557 37,000  Level Kansas City Center
12:48PM 39.3769 -88.7208 75° East 483 556 37,000  Level Kansas City Center
12:49PM 39.4086 -88.5511 76° East 484 557 37,000  Level Kansas City Center
12:50PM 39.4414 -88.3847 76° East 480 552 37,000  Level Kansas City Center
12:51PM 39.4750 -88.2133 76° East 483 556 37,000  Level Kansas City Center
12:52PM 39.5083 -88.0406 76° East 488 562 37,000  Level Kansas City Center
12:53PM 39.5475 -87.8364 76° East 485 558 37,000  Level Kansas City Center
12:54PM 39.5789 -87.6667 76° East 484 557 37,000  Level Kansas City Center
12:55PM 39.6092 -87.4983 77° East 486 559 37,000  Level Indianapolis Center
12:56PM 39.6481 -87.2917 76° East 487 560 37,000  Level Indianapolis Center
12:57PM 39.6806 -87.1194 76° East 488 562 37,000  Level Indianapolis Center
12:58PM 39.7111 -86.9458 77° East 489 563 37,000  Level Indianapolis Center
12:59PM 39.7419 -86.7739 77° East 487 560 37,000  Level Indianapolis Center
01:00PM 39.7739 -86.6011 76° East 487 560 37,000  Level Indianapolis Center
01:01PM 39.8042 -86.4289 77° East 487 560 37,000  Level Indianapolis Center
01:02PM 39.8383 -86.2575 75° East 486 559 37,000  Level Indianapolis Center
01:04PM 39.8742 -86.0856 75° East 489 563 37,000  Level Indianapolis Center
01:05PM 39.9153 -85.8986 74° East 490 564 37,000  Level Indianapolis Center
01:06PM 39.9508 -85.7258 75° East 490 564 37,000  Level Indianapolis Center
01:07PM 39.9872 -85.5511 75° East 493 567 37,000  Level Indianapolis Center
01:08PM 40.0233 -85.3764 75° East 495 570 37,000  Level Indianapolis Center
01:09PM 40.0597 -85.2000 75° East 498 573 37,000  Level Indianapolis Center
01:10PM 40.1011 -84.9939 75° East 499 574 37,000  Level Indianapolis Center
01:11PM 40.1361 -84.8150 76° East 502 578 37,000  Level Indianapolis Center
01:12PM 40.1714 -84.6369 75° East 502 578 37,000  Level Indianapolis Center
01:13PM 40.2081 -84.4589 75° East 503 579 37,000  Level Indianapolis Center
01:14PM 40.2425 -84.2803 76° East 500 575 37,000  Level Indianapolis Center
01:15PM 40.2772 -84.1014 76° East 501 577 37,000  Level Indianapolis Center
01:16PM 40.3458 -83.9419 61° Northeast 498 573 37,000  Level Indianapolis Center
01:17PM 40.4322 -83.7942 52° Northeast 501 577 37,000  Level Indianapolis Center
01:18PM 40.5175 -83.6486 52° Northeast 498 573 37,000  Level Indianapolis Center
01:19PM 40.6033 -83.5006 53° Northeast 502 578 37,000  Level Indianapolis Center
01:20PM 40.6750 -83.3756 53° Northeast 500 575 37,000  Level Cleveland Center
01:21PM 40.7575 -83.2311 53° Northeast 500 575 37,000  Level Cleveland Center
01:22PM 40.8114 -83.0603 67° East 491 565 37,000  Level Cleveland Center
01:23PM 40.8553 -82.8672 73° East 491 565 37,000  Level Cleveland Center
01:24PM 40.8939 -82.6928 74° East 491 565 37,000  Level Cleveland Center
01:25PM 40.9325 -82.5181 74° East 491 565 37,000  Level Cleveland Center
01:26PM 40.9728 -82.3406 73° East 491 565 37,000  Level Cleveland Center
01:27PM 41.0086 -82.1817 73° East 491 565 37,000  Level Cleveland Center
01:28PM 41.0464 -82.0036 74° East 491 565 37,000  Level Cleveland Center
01:29PM 41.0839 -81.8256 74° East 496 571 37,000  Level Cleveland Center
01:30PM 41.1297 -81.6281 73° East 496 571 37,000  Level Cleveland Center
01:31PM 41.1644 -81.4658 74° East 501 577 37,000  Level Cleveland Center
01:32PM 41.2033 -81.2675 75° East 501 577 37,000  Level Cleveland Center
01:33PM 41.2375 -81.1050 74° East 506 582 37,000  Level Cleveland Center
01:34PM 41.2758 -80.9203 75° East 506 582 37,000  Level Cleveland Center
01:35PM 41.3136 -80.7381 75° East 504 580 37,000  Level Cleveland Center
01:36PM 41.3514 -80.5583 74° East 504 580 37,000  Level Cleveland Center
01:37PM 41.3886 -80.3728 75° East 510 587 37,000  Level Cleveland Center
01:38PM 41.4256 -80.1900 75° East 510 587 37,000  Level Cleveland Center
01:39PM 41.4625 -80.0069 75° East 510 587 37,000  Level Cleveland Center
01:40PM 41.5008 -79.8097 75° East 504 580 37,000  Level Cleveland Center
01:41PM 41.5369 -79.6261 75° East 504 580 37,000  Level Cleveland Center
01:42PM 41.5728 -79.4425 75° East 504 580 37,000  Level Cleveland Center
01:43PM 41.6083 -79.2586 75° East 509 586 37,000  Level Cleveland Center
01:44PM 41.6436 -79.0717 76° East 509 586 37,000  Level Cleveland Center
01:45PM 41.6786 -78.8844 76° East 509 586 37,000  Level Cleveland Center
01:46PM 41.7131 -78.6972 76° East 509 586 37,000  Level Cleveland Center
01:47PM 41.7475 -78.5097 76° East 509 586 37,000  Level Cleveland Center
01:48PM 41.7794 -78.3278 77° East 509 586 37,000  Level Cleveland Center
01:49PM 41.8283 -78.0697 76° East 509 586 37,000  Level New York Center
01:50PM 41.8544 -77.8803 79° East 509 586 37,000  Level New York Center
01:51PM 41.8236 -77.6961 103° East 498 573 37,000  Level New York Center
01:52PM 41.7756 -77.5186 110° East 509 586 37,000  Level New York Center
01:53PM 41.7289 -77.3442 110° East 509 586 37,000 -540 Level New York Center
01:54PM 41.6822 -77.1703 110° East 503 579 36,000 -1,020 Descending New York Center
01:55PM 41.6356 -76.9908 109° East 498 573 35,000 -1,020 Descending New York Center
01:56PM 41.5861 -76.8169 111° Southeast 504 580 34,100 -960 Descending New York Center
01:57PM 41.5442 -76.6608 110° East 504 580 33,200 -840 Descending New York Center
01:58PM 41.4983 -76.4906 110° East 499 574 32,500 -840 Descending New York Center
01:59PM 41.4503 -76.3147 110° East 499 574 31,600 -960 Descending New York Center
02:00PM 41.4019 -76.1450 111° Southeast 499 574 30,600 -1,020 Descending New York Center
02:01PM 41.3478 -75.9583 111° Southeast 499 574 29,600 -1,020 Descending New York Center
02:02PM 41.2967 -75.7858 111° Southeast 494 568 28,600 -1,740 Descending New York Center
02:03PM 41.2458 -75.6081 111° Southeast 503 579 26,200 -2,100 Descending New York Center
02:04PM 41.1881 -75.4414 115° Southeast 503 579 24,400 -1,620 Descending New York Center
02:05PM 41.1339 -75.2778 114° Southeast 491 565 23,000 -720 Descending New York Center
02:06PM 41.0814 -75.1203 114° Southeast 480 552 23,000  Level New York Center
02:07PM 41.0286 -74.9711 115° Southeast 461 531 23,000 -540 Level New York Center
02:08PM 40.9939 -74.8314 108° East 421 484 22,000 -1,020 Descending New York Center
02:09PM 40.9775 -74.6958 99° East 392 451 21,000 -540 Descending New York Center
02:10PM 41.0194 -74.5661 67° East 358 412 21,000  Level New York Center
02:11PM 41.0731 -74.4481 59° Northeast 358 412 21,000 -60 Level New York Center
02:12PM 41.0878 -74.3086 82° East 368 423 20,900 -780 Descending New York Center
02:13PM 41.0750 -74.1758 97° East 362 417 19,500 -1,020 Descending New York Center
02:14PM 41.0000 -74.1333 157° South 332 382 19,000 -300 Descending New York TRACON
02:15PM 40.9167 -74.1167 171° South 320 368 19,000 -480 Level New York TRACON
02:16PM 40.8333 -74.1000 171° South 326 375 18,200 -1,320 Descending New York TRACON
02:17PM 40.7500 -74.0833 171° South 320 368 16,500 -1,560 Descending New York TRACON
02:18PM 40.6667 -74.0667 171° South 310 357 15,100 -1,440 Descending New York TRACON
02:19PM 40.5667 -74.0500 173° South 308 354 13,500 -1,080 Descending New York TRACON
02:20PM 40.5000 -74.0333 169° South 297 342 13,000 -1,080 Descending New York TRACON
02:21PM 40.4333 -73.9667 143° Southeast 314 361 11,500 -1,500 Descending New York TRACON
02:22PM 40.3667 -73.8833 136° Southeast 300 345 10,100 -1,380 Descending New York TRACON
02:23PM 40.3044 -73.7836 129° Southeast 301 346 8,400 -1,380 Descending New York Center
02:24PM 40.3333 -73.7333 53° Northeast 276 318 7,400 -1,200 Descending New York TRACON
02:25PM 40.4000 -73.7000 21° North 251 289 6,300 -1,440 Descending New York TRACON
02:26PM 40.4667 -73.6667 21° North 237 273 4,600 -1,920 Descending New York TRACON
02:27PM 40.5333 -73.6667 360° North 233 268 2,500 -2,100 Descending New York TRACON